createdAt,value
2023-01-25T00:01:51.696Z,1.40
2023-01-25T00:04:19.251Z,1.25
2023-01-25T00:06:45.729Z,1.40
2023-01-25T00:09:12.838Z,1.21
2023-01-25T00:11:40.509Z,1.36
2023-01-25T00:14:09.023Z,1.34
2023-01-25T00:16:35.887Z,0.96
2023-01-25T00:19:03.434Z,1.26
2023-01-25T00:21:31.398Z,1.04
2023-01-25T00:23:57.907Z,1.29
2023-01-25T00:26:24.355Z,1.39
2023-01-25T00:28:52.451Z,1.63
2023-01-25T00:31:27.037Z,1.38
2023-01-25T00:34:00.743Z,1.53
2023-01-25T00:36:33.290Z,1.34
2023-01-25T00:38:59.860Z,1.48
2023-01-25T00:41:26.415Z,1.53
2023-01-25T00:43:54.337Z,1.35
2023-01-25T00:46:20.817Z,1.30
2023-01-25T00:48:47.606Z,1.06
2023-01-25T00:51:14.965Z,1.16
2023-01-25T00:53:41.538Z,1.29
2023-01-25T00:56:08.075Z,1.31
2023-01-25T00:58:34.611Z,1.23
2023-01-25T01:01:01.801Z,1.19
2023-01-25T01:03:29.404Z,1.18
2023-01-25T01:06:04.582Z,1.10
2023-01-25T01:08:33.647Z,1.21
2023-01-25T01:11:00.571Z,1.08
2023-01-25T01:13:27.449Z,1.03
2023-01-25T01:15:53.939Z,0.97
2023-01-25T01:18:21.351Z,1.21
2023-01-25T01:20:51.312Z,0.97
2023-01-25T01:23:17.968Z,0.76
2023-01-25T01:25:44.654Z,1.06
2023-01-25T01:28:11.504Z,1.07
2023-01-25T01:30:38.919Z,1.28
2023-01-25T01:33:05.944Z,1.21
2023-01-25T01:35:33.220Z,1.19
2023-01-25T01:37:59.927Z,1.08
2023-01-25T01:40:26.459Z,1.08
2023-01-25T01:42:57.196Z,1.02
2023-01-25T01:45:58.041Z,0.98
2023-01-25T01:48:34.810Z,1.19
2023-01-25T01:51:10.773Z,1.14
2023-01-25T01:53:38.540Z,0.99
2023-01-25T01:56:10.462Z,0.79
2023-01-25T01:58:37.477Z,0.98
2023-01-25T02:01:04.356Z,1.07
2023-01-25T02:03:31.678Z,0.99
2023-01-25T02:06:04.214Z,1.04
2023-01-25T02:08:35.942Z,1.19
2023-01-25T02:11:03.979Z,0.99
2023-01-25T02:13:31.901Z,0.83
2023-01-25T02:15:58.533Z,0.68
2023-01-25T02:18:25.345Z,0.67
2023-01-25T02:20:56.281Z,0.58
2023-01-25T02:23:32.924Z,0.97
2023-01-25T02:26:02.883Z,0.86
2023-01-25T02:28:34.663Z,0.95
2023-01-25T02:31:01.117Z,0.88
2023-01-25T02:33:28.111Z,0.94
2023-01-25T02:36:00.739Z,1.01
2023-01-25T02:38:32.794Z,0.97
2023-01-25T02:41:06.712Z,0.99
2023-01-25T02:43:35.665Z,0.94
2023-01-25T02:46:11.640Z,1.03
2023-01-25T02:48:38.146Z,0.85
2023-01-25T02:51:08.115Z,0.71
2023-01-25T02:53:34.791Z,0.82
2023-01-25T02:56:02.071Z,0.90
2023-01-25T02:58:29.996Z,0.88
2023-01-25T03:00:58.083Z,1.03
2023-01-25T03:03:25.647Z,0.92
2023-01-25T03:05:52.887Z,0.97
2023-01-25T03:08:19.367Z,0.95
2023-01-25T03:10:48.698Z,1.04
2023-01-25T03:13:15.884Z,0.93
2023-01-25T03:15:42.304Z,0.80
2023-01-25T03:18:08.863Z,0.76
2023-01-25T03:20:35.277Z,0.93
2023-01-25T03:23:02.214Z,1.07
2023-01-25T03:25:28.797Z,1.00
2023-01-25T03:28:06.437Z,0.85
2023-01-25T03:30:33.875Z,0.77
2023-01-25T03:33:00.415Z,0.69
2023-01-25T03:35:27.192Z,1.14
2023-01-25T03:37:53.908Z,0.88
2023-01-25T03:40:20.297Z,0.75
2023-01-25T03:42:49.851Z,0.88
2023-01-25T03:45:16.475Z,0.86
2023-01-25T03:47:44.651Z,0.92
2023-01-25T03:50:11.521Z,1.00
2023-01-25T03:53:26.587Z,0.89
2023-01-25T03:55:55.474Z,1.02
2023-01-25T03:58:22.212Z,0.92
2023-01-25T04:00:50.875Z,0.97
2023-01-25T04:03:19.061Z,0.88
2023-01-25T04:05:46.311Z,0.88
2023-01-25T04:08:12.833Z,0.87
2023-01-25T04:10:40.025Z,0.83
2023-01-25T04:13:07.463Z,0.79
2023-01-25T04:15:34.599Z,0.79
2023-01-25T04:18:08.037Z,0.94
2023-01-25T04:20:35.519Z,0.99
2023-01-25T04:23:02.023Z,0.86
2023-01-25T04:25:34.872Z,0.81
2023-01-25T04:28:01.653Z,0.83
2023-01-25T04:30:28.357Z,0.83
2023-01-25T04:32:56.909Z,0.63
2023-01-25T04:35:28.431Z,0.81
2023-01-25T04:37:56.627Z,0.77
2023-01-25T04:40:26.090Z,0.67
2023-01-25T04:42:52.601Z,0.74
2023-01-25T04:45:19.173Z,0.90
2023-01-25T04:47:45.759Z,0.91
2023-01-25T04:50:12.201Z,1.11
2023-01-25T04:52:38.666Z,1.09
2023-01-25T04:55:06.636Z,1.05
2023-01-25T04:57:38.722Z,0.96
2023-01-25T05:00:06.556Z,0.66
2023-01-25T05:02:33.227Z,0.64
2023-01-25T05:04:59.790Z,0.71
2023-01-25T05:07:27.110Z,0.77
2023-01-25T05:09:53.664Z,0.69
2023-01-25T05:12:23.636Z,0.66
2023-01-25T05:14:54.164Z,0.51
2023-01-25T05:17:21.143Z,0.45
2023-01-25T05:19:48.121Z,0.60
2023-01-25T05:22:20.067Z,0.53
2023-01-25T05:24:49.646Z,0.55
2023-01-25T05:27:18.811Z,0.56
2023-01-25T05:29:55.615Z,0.55
2023-01-25T05:32:28.262Z,0.38
2023-01-25T05:34:55.538Z,0.42
2023-01-25T05:37:22.547Z,0.43
2023-01-25T05:39:56.320Z,0.40
2023-01-25T05:42:23.788Z,0.60
2023-01-25T05:44:50.584Z,0.59
2023-01-25T05:47:19.600Z,0.44
2023-01-25T05:49:46.337Z,0.48
2023-01-25T05:52:20.333Z,0.57
2023-01-25T05:54:46.783Z,0.66
2023-01-25T05:57:15.007Z,0.66
2023-01-25T05:59:41.958Z,0.63
2023-01-25T06:02:10.559Z,0.68
2023-01-25T06:04:38.149Z,0.60
2023-01-25T06:07:05.117Z,0.30
2023-01-25T06:09:32.706Z,0.37
2023-01-25T06:11:59.135Z,0.54
2023-01-25T06:14:25.568Z,0.51
2023-01-25T06:16:52.454Z,0.76
2023-01-25T06:19:38.200Z,0.68
2023-01-25T06:22:30.920Z,0.76
2023-01-25T06:24:57.321Z,0.68
2023-01-25T06:27:23.719Z,0.73
2023-01-25T06:29:50.159Z,0.60
2023-01-25T06:32:16.599Z,0.53
2023-01-25T06:34:45.568Z,0.48
2023-01-25T06:37:19.505Z,0.37
2023-01-25T06:39:45.903Z,0.29
2023-01-25T06:42:12.294Z,0.41
2023-01-25T06:44:38.705Z,0.47
2023-01-25T06:47:05.129Z,0.55
2023-01-25T06:49:31.537Z,0.52
2023-01-25T06:52:00.458Z,0.52
2023-01-25T06:54:26.862Z,0.49
2023-01-25T06:56:53.277Z,0.41
2023-01-25T06:59:19.964Z,0.52
2023-01-25T07:01:46.395Z,0.50
2023-01-25T07:04:12.822Z,0.56
2023-01-25T07:06:44.430Z,0.61
2023-01-25T07:09:13.490Z,0.70
2023-01-25T07:11:39.941Z,0.44
2023-01-25T07:14:06.488Z,0.32
2023-01-25T07:16:36.329Z,0.50
2023-01-25T07:19:02.835Z,0.51
2023-01-25T07:21:29.324Z,0.51
2023-01-25T07:24:01.427Z,0.51
2023-01-25T07:26:28.947Z,0.33
2023-01-25T07:28:56.833Z,0.45
2023-01-25T07:31:23.618Z,0.50
2023-01-25T07:33:51.247Z,0.52
2023-01-25T07:36:18.288Z,0.64
2023-01-25T07:38:45.149Z,0.63
2023-01-25T07:41:12.300Z,0.52
2023-01-25T07:43:40.401Z,0.22
2023-01-25T07:46:11.403Z,0.41
2023-01-25T07:48:38.962Z,0.55
2023-01-25T07:51:21.796Z,0.71
2023-01-25T07:53:49.660Z,0.74
2023-01-25T07:56:16.672Z,0.71
2023-01-25T07:58:43.831Z,0.57
2023-01-25T08:01:12.257Z,0.58
2023-01-25T08:03:39.041Z,0.57
2023-01-25T08:06:06.315Z,0.38
2023-01-25T08:08:34.435Z,0.50
2023-01-25T08:11:06.449Z,0.64
2023-01-25T08:13:32.867Z,0.54
2023-01-25T08:15:59.931Z,0.54
2023-01-25T08:18:26.595Z,0.46
2023-01-25T08:20:52.996Z,0.69
2023-01-25T08:23:20.055Z,0.59
2023-01-25T08:25:46.687Z,0.57
2023-01-25T08:28:13.112Z,0.62
2023-01-25T08:30:51.974Z,0.63
2023-01-25T08:33:23.484Z,0.64
2023-01-25T08:35:55.036Z,0.56
2023-01-25T08:38:21.541Z,0.67
2023-01-25T08:40:47.957Z,4.18
2023-01-25T08:43:14.364Z,3.97
2023-01-25T08:45:40.732Z,4.08
2023-01-25T08:48:07.142Z,4.25
2023-01-25T08:50:34.310Z,3.58
2023-01-25T08:53:01.141Z,4.57
2023-01-25T08:55:27.591Z,4.76
2023-01-25T08:57:56.406Z,3.67
2023-01-25T09:00:22.953Z,3.79
2023-01-25T09:02:49.420Z,3.88
2023-01-25T09:05:16.016Z,4.56
2023-01-25T09:07:43.056Z,4.15
2023-01-25T09:10:10.833Z,2.93
2023-01-25T09:12:37.566Z,3.70
2023-01-25T09:15:04.776Z,3.94
2023-01-25T09:17:31.328Z,2.52
2023-01-25T09:19:57.780Z,1.55
2023-01-25T09:22:24.255Z,1.24
2023-01-25T09:24:53.216Z,1.05
2023-01-25T09:27:20.081Z,0.89
2023-01-25T09:30:01.001Z,0.47
2023-01-25T09:32:28.180Z,0.55
2023-01-25T09:34:54.792Z,0.62
2023-01-25T09:37:21.266Z,0.57
2023-01-25T09:39:47.747Z,0.59
2023-01-25T09:42:31.940Z,0.52
2023-01-25T09:45:26.904Z,0.47
2023-01-25T09:47:58.977Z,0.37
2023-01-25T09:50:53.037Z,0.54
2023-01-25T09:53:23.647Z,0.57
2023-01-25T09:55:53.330Z,0.45
2023-01-25T09:58:24.265Z,0.57
2023-01-25T10:00:59.499Z,0.52
2023-01-25T10:03:31.636Z,0.37
2023-01-25T10:06:01.192Z,0.43
2023-01-25T10:08:32.746Z,0.45
2023-01-25T10:11:05.643Z,0.44
2023-01-25T10:13:32.831Z,0.38
2023-01-25T10:16:05.197Z,0.32
2023-01-25T10:18:36.959Z,0.31
2023-01-25T10:21:10.556Z,0.36
2023-01-25T10:24:10.977Z,0.29
2023-01-25T10:26:42.618Z,0.44
2023-01-25T10:29:15.279Z,0.57
2023-01-25T10:31:46.104Z,0.51
2023-01-25T10:34:17.888Z,0.60
2023-01-25T10:36:47.600Z,0.56
2023-01-25T10:39:14.924Z,0.73
2023-01-25T10:41:47.505Z,0.67
2023-01-25T10:44:21.416Z,0.52
2023-01-25T10:46:53.187Z,0.52
2023-01-25T10:49:24.499Z,0.45
2023-01-25T10:51:50.948Z,0.37
2023-01-25T10:54:17.350Z,0.32
2023-01-25T10:56:45.892Z,0.38
2023-01-25T10:59:20.818Z,0.47
2023-01-25T11:01:47.704Z,0.68
2023-01-25T11:04:34.683Z,0.59
2023-01-25T11:07:02.166Z,0.65
2023-01-25T11:09:33.063Z,0.41
2023-01-25T11:12:01.365Z,0.44
2023-01-25T11:14:30.597Z,0.58
2023-01-25T11:16:58.377Z,0.66
2023-01-25T11:19:32.083Z,0.67
2023-01-25T11:22:00.193Z,0.41
2023-01-25T11:24:28.164Z,0.40
2023-01-25T11:27:13.845Z,0.47
2023-01-25T11:29:40.954Z,0.49
2023-01-25T11:32:19.643Z,0.53
2023-01-25T11:34:46.176Z,0.47
2023-01-25T11:37:45.125Z,0.48
2023-01-25T11:40:19.818Z,0.28
2023-01-25T11:42:59.300Z,0.25
2023-01-25T11:46:02.017Z,0.29
2023-01-25T11:48:52.900Z,0.52
2023-01-25T11:51:25.892Z,0.44
2023-01-25T11:54:05.923Z,0.45
2023-01-25T11:56:46.600Z,0.57
2023-01-25T11:59:26.556Z,0.59
2023-01-25T12:02:10.255Z,0.53
2023-01-25T12:04:56.613Z,0.66
2023-01-25T12:07:37.979Z,0.50
2023-01-25T12:10:19.657Z,0.32
2023-01-25T12:12:56.165Z,0.46
2023-01-25T12:15:49.968Z,0.47
2023-01-25T12:18:52.345Z,0.32
2023-01-25T12:21:31.847Z,0.38
2023-01-25T12:24:14.903Z,0.32
2023-01-25T12:26:49.347Z,0.29
2023-01-25T12:29:24.557Z,0.19
2023-01-25T12:31:58.306Z,0.23
2023-01-25T12:34:33.313Z,0.26
2023-01-25T12:37:10.701Z,0.49
2023-01-25T12:39:44.747Z,0.35
2023-01-25T12:42:16.730Z,0.53
2023-01-25T12:44:48.083Z,0.49
2023-01-25T12:47:21.702Z,0.49
2023-01-25T12:49:54.024Z,0.48
2023-01-25T12:52:24.049Z,0.44
2023-01-25T12:54:54.803Z,0.31
2023-01-25T12:57:28.939Z,0.23
2023-01-25T13:00:05.368Z,0.18
2023-01-25T13:02:52.993Z,0.34
2023-01-25T13:05:28.750Z,0.40
2023-01-25T13:08:03.250Z,0.43
2023-01-25T13:10:34.117Z,0.48
2023-01-25T13:13:03.191Z,0.58
2023-01-25T13:15:38.198Z,0.52
2023-01-25T13:18:40.230Z,0.45
2023-01-25T13:21:48.241Z,0.08
2023-01-25T13:24:20.391Z,0.14
2023-01-25T13:26:58.218Z,0.21
2023-01-25T13:29:55.597Z,0.17
2023-01-25T13:33:02.673Z,0.19
2023-01-25T13:35:40.153Z,0.29
2023-01-25T13:38:39.251Z,0.42
2023-01-25T13:41:14.113Z,0.46
2023-01-25T13:43:43.648Z,0.50
2023-01-25T13:46:14.639Z,0.51
2023-01-25T13:48:53.769Z,0.53
2023-01-25T13:51:21.153Z,0.51
2023-01-25T13:53:58.528Z,0.47
2023-01-25T13:56:29.174Z,0.39
2023-01-25T13:58:59.861Z,0.32
2023-01-25T14:01:32.149Z,0.34
2023-01-25T14:04:01.662Z,0.25
2023-01-25T14:06:30.124Z,0.36
2023-01-25T14:09:00.641Z,0.35
2023-01-25T14:11:30.267Z,0.32
2023-01-25T14:13:58.695Z,0.32
2023-01-25T14:16:26.702Z,0.41
2023-01-25T14:18:53.479Z,0.32
2023-01-25T14:21:21.435Z,0.27
2023-01-25T14:23:48.785Z,0.31
2023-01-25T14:26:21.833Z,0.37
2023-01-25T14:28:59.541Z,0.24
2023-01-25T14:31:34.666Z,0.31
2023-01-25T14:34:03.977Z,0.26
2023-01-25T14:36:33.497Z,0.34
2023-01-25T14:39:00.154Z,0.22
2023-01-25T14:41:29.521Z,0.21
2023-01-25T14:43:58.871Z,0.06
2023-01-25T14:46:28.194Z,-0.02
2023-01-25T14:49:24.683Z,0.03
2023-01-25T14:51:56.328Z,0.07
2023-01-25T14:54:25.407Z,0.04
2023-01-25T14:56:54.771Z,-0.08
2023-01-25T14:59:29.209Z,-0.25
2023-01-25T15:01:58.844Z,-0.45
2023-01-25T15:04:25.885Z,-0.37
2023-01-25T15:06:54.050Z,-0.25
2023-01-25T15:09:35.930Z,0.05
2023-01-25T15:12:22.789Z,0.14
2023-01-25T15:14:54.627Z,0.15
2023-01-25T15:17:44.890Z,0.06
2023-01-25T15:20:32.855Z,-0.07
2023-01-25T15:23:02.565Z,0.06
2023-01-25T15:25:31.864Z,0.09
2023-01-25T15:27:58.331Z,-0.03
2023-01-25T15:30:25.502Z,-0.17
2023-01-25T15:32:52.059Z,-0.19
2023-01-25T15:35:20.657Z,-0.08
2023-01-25T15:37:49.389Z,0.00
2023-01-25T15:40:16.829Z,-0.02
2023-01-25T15:42:43.647Z,-0.02
2023-01-25T15:45:11.066Z,0.05
2023-01-25T15:47:39.104Z,0.05
2023-01-25T15:50:06.784Z,-0.04
2023-01-25T15:52:33.266Z,0.04
2023-01-25T15:55:01.982Z,-0.08
2023-01-25T15:57:32.224Z,-0.16
2023-01-25T16:00:01.840Z,-0.09
2023-01-25T16:02:34.498Z,-0.04
2023-01-25T16:05:02.205Z,-0.03
2023-01-25T16:07:38.171Z,-0.11
2023-01-25T16:10:05.423Z,-0.08
2023-01-25T16:12:33.705Z,-0.01
2023-01-25T16:15:00.153Z,-0.02
2023-01-25T16:17:29.729Z,-0.02
2023-01-25T16:19:56.134Z,-0.10
2023-01-25T16:22:23.261Z,-0.12
2023-01-25T16:24:49.719Z,-0.14
2023-01-25T16:27:22.066Z,-0.20
2023-01-25T16:29:48.489Z,-0.28
2023-01-25T16:32:14.981Z,-0.28
2023-01-25T16:34:41.434Z,-0.21
2023-01-25T16:37:14.064Z,-0.29
2023-01-25T16:39:41.310Z,-0.35
2023-01-25T16:42:09.191Z,-0.28
2023-01-25T16:44:36.032Z,-0.19
2023-01-25T16:47:03.944Z,-0.17
2023-01-25T16:49:34.073Z,-0.13
2023-01-25T16:52:03.032Z,-0.17
2023-01-25T16:54:29.885Z,-0.23
2023-01-25T16:56:58.057Z,-0.16
2023-01-25T16:59:25.389Z,-0.14
2023-01-25T17:01:52.347Z,-0.21
2023-01-25T17:04:24.327Z,-0.24
2023-01-25T17:06:52.278Z,-0.12
2023-01-25T17:09:24.215Z,-0.02
2023-01-25T17:11:51.590Z,-0.12
2023-01-25T17:14:19.554Z,-0.12
2023-01-25T17:16:47.567Z,-0.07
2023-01-25T17:19:16.196Z,-0.06
2023-01-25T17:21:43.249Z,-0.08
2023-01-25T17:24:12.565Z,-0.04
2023-01-25T17:26:40.044Z,-0.08
2023-01-25T17:29:06.895Z,-0.10
2023-01-25T17:31:35.529Z,-0.13
2023-01-25T17:34:04.714Z,-0.13
2023-01-25T17:36:31.396Z,-0.06
2023-01-25T17:39:02.333Z,-0.33
2023-01-25T17:41:29.754Z,-0.41
2023-01-25T17:43:57.008Z,-0.51
2023-01-25T17:46:26.856Z,-0.45
2023-01-25T17:48:55.501Z,-0.41
2023-01-25T17:51:24.802Z,-0.46
2023-01-25T17:53:52.307Z,-0.52
2023-01-25T17:56:19.199Z,-0.44
2023-01-25T17:58:46.551Z,-0.40
2023-01-25T18:01:15.937Z,-0.45
2023-01-25T18:03:43.784Z,-0.37
2023-01-25T18:06:16.297Z,-0.24
2023-01-25T18:08:45.386Z,-0.40
2023-01-25T18:11:16.568Z,-0.43
2023-01-25T18:13:45.076Z,-0.30
2023-01-25T18:16:12.972Z,-0.46
2023-01-25T18:18:41.302Z,-0.44
2023-01-25T18:21:10.769Z,-0.46
2023-01-25T18:23:41.470Z,-0.30
2023-01-25T18:26:17.586Z,-0.36
2023-01-25T18:28:44.324Z,-0.38
2023-01-25T18:31:15.093Z,-0.27
2023-01-25T18:33:42.016Z,-0.22
2023-01-25T18:36:10.663Z,-0.16
2023-01-25T18:38:38.041Z,-0.21
2023-01-25T18:41:04.790Z,-0.28
2023-01-25T18:43:31.417Z,-0.27
2023-01-25T18:45:58.740Z,-0.21
2023-01-25T18:48:29.689Z,-0.13
2023-01-25T18:50:57.371Z,-0.24
2023-01-25T18:53:25.231Z,-0.16
2023-01-25T18:55:59.847Z,-0.20
2023-01-25T18:58:26.251Z,-0.24
2023-01-25T19:01:01.691Z,-0.40
2023-01-25T19:03:29.728Z,-0.24
2023-01-25T19:05:56.841Z,-0.16
2023-01-25T19:08:24.552Z,-0.19
2023-01-25T19:10:51.584Z,-0.22
2023-01-25T19:13:18.739Z,-0.23
2023-01-25T19:15:45.224Z,-0.21
2023-01-25T19:18:11.637Z,-0.18
2023-01-25T19:20:38.879Z,-0.17
2023-01-25T19:23:05.304Z,-0.19
2023-01-25T19:25:34.145Z,-0.23
2023-01-25T19:28:00.719Z,-0.23
2023-01-25T19:30:29.492Z,-0.10
2023-01-25T19:32:57.731Z,-0.22
2023-01-25T19:35:24.426Z,-0.21
2023-01-25T19:37:50.836Z,-0.19
2023-01-25T19:40:18.206Z,-0.13
2023-01-25T19:42:44.696Z,-0.25
2023-01-25T19:45:11.935Z,-0.35
2023-01-25T19:47:39.154Z,-0.43
2023-01-25T19:50:06.837Z,-0.34
2023-01-25T19:52:33.535Z,-0.23
2023-01-25T19:55:00.040Z,-0.20
2023-01-25T19:57:27.051Z,-0.27
2023-01-25T19:59:53.474Z,-0.28
2023-01-25T20:02:20.103Z,-0.30
2023-01-25T20:04:47.384Z,-0.19
2023-01-25T20:07:13.939Z,-0.19
2023-01-25T20:09:40.341Z,-0.32
2023-01-25T20:12:07.623Z,-0.29
2023-01-25T20:14:34.301Z,-0.43
2023-01-25T20:17:00.870Z,-0.39
2023-01-25T20:19:27.508Z,-0.30
2023-01-25T20:21:54.593Z,-0.22
2023-01-25T20:24:21.815Z,-0.35
2023-01-25T20:26:48.605Z,-0.28
2023-01-25T20:29:15.035Z,-0.34
2023-01-25T20:31:43.362Z,-0.26
2023-01-25T20:34:12.333Z,-0.43
2023-01-25T20:36:38.934Z,-0.51
2023-01-25T20:39:07.237Z,-0.50
2023-01-25T20:41:36.555Z,-0.52
2023-01-25T20:44:08.954Z,-0.37
2023-01-25T20:46:37.286Z,-0.30
2023-01-25T20:49:05.641Z,-0.39
2023-01-25T20:51:33.157Z,-0.40
2023-01-25T20:53:59.782Z,-0.23
2023-01-25T20:56:27.491Z,-0.16
2023-01-25T20:58:54.304Z,-0.26
2023-01-25T21:01:22.791Z,-0.25
2023-01-25T21:03:51.514Z,-0.23
2023-01-25T21:06:20.726Z,-0.33
2023-01-25T21:08:47.532Z,-0.25
2023-01-25T21:11:14.125Z,-0.30
2023-01-25T21:13:42.253Z,-0.28
2023-01-25T21:16:11.246Z,-0.44
2023-01-25T21:18:39.346Z,-0.33
2023-01-25T21:21:08.155Z,-0.33
2023-01-25T21:23:36.889Z,-0.37
2023-01-25T21:26:04.942Z,-0.20
2023-01-25T21:28:31.783Z,-0.20
2023-01-25T21:31:07.267Z,-0.19
2023-01-25T21:33:34.665Z,-0.16
2023-01-25T21:36:01.440Z,-0.12
2023-01-25T21:38:27.854Z,-0.09
2023-01-25T21:40:59.804Z,0.05
2023-01-25T21:43:28.407Z,-0.03
2023-01-25T21:46:27.639Z,-0.12
2023-01-25T21:49:22.916Z,-0.05
2023-01-25T21:51:51.347Z,-0.20
2023-01-25T21:54:19.372Z,-0.28
2023-01-25T21:56:46.928Z,-0.34
2023-01-25T21:59:13.922Z,-0.35
2023-01-25T22:01:42.289Z,-0.33
2023-01-25T22:04:09.966Z,-0.47
2023-01-25T22:06:36.909Z,-0.41
2023-01-25T22:09:04.219Z,-0.48
2023-01-25T22:11:31.256Z,-0.54
2023-01-25T22:13:58.443Z,-0.55
2023-01-25T22:16:25.452Z,-0.51
2023-01-25T22:18:51.946Z,-0.48
2023-01-25T22:21:21.357Z,-0.44
2023-01-25T22:23:48.489Z,-0.51
2023-01-25T22:26:17.138Z,-0.46
2023-01-25T22:28:45.648Z,-0.48
2023-01-25T22:31:12.754Z,-0.61
2023-01-25T22:33:39.515Z,-0.55
2023-01-25T22:36:06.759Z,-0.48
2023-01-25T22:38:34.029Z,-0.44
2023-01-25T22:41:04.665Z,-0.50
2023-01-25T22:43:31.295Z,-0.53
2023-01-25T22:45:57.955Z,-0.39
2023-01-25T22:48:24.398Z,-0.37
2023-01-25T22:50:50.859Z,-0.48
2023-01-25T22:53:17.387Z,-0.50
2023-01-25T22:55:45.091Z,-0.53
2023-01-25T22:58:11.968Z,-0.51
2023-01-25T23:00:38.490Z,-0.46
2023-01-25T23:03:04.909Z,-0.45
2023-01-25T23:05:31.316Z,-0.29
2023-01-25T23:07:58.776Z,-0.26
2023-01-25T23:10:25.238Z,-0.29
2023-01-25T23:12:53.379Z,-0.35
2023-01-25T23:15:19.829Z,-0.43
2023-01-25T23:18:04.229Z,-0.44
2023-01-25T23:20:30.687Z,-0.47
2023-01-25T23:22:57.097Z,-0.53
2023-01-25T23:25:23.557Z,-0.54
2023-01-25T23:27:50.276Z,2.58
2023-01-25T23:30:17.791Z,4.48
2023-01-25T23:32:45.387Z,4.68
2023-01-25T23:35:12.424Z,2.58
2023-01-25T23:37:38.798Z,1.42
2023-01-25T23:40:08.262Z,0.80
2023-01-25T23:42:34.886Z,0.43
2023-01-25T23:45:01.281Z,-0.02
2023-01-25T23:47:31.017Z,-0.02
2023-01-25T23:49:57.684Z,-0.11
2023-01-25T23:52:24.161Z,-0.23
2023-01-25T23:54:50.530Z,-0.13
2023-01-25T23:57:16.929Z,-0.11
2023-01-25T23:59:43.355Z,-0.19
